Flight Track Log - Related Links

Times and Time Zones

All times are in EDT time to prevent confusion due to time zone crossing. See the FDX1570 flight status page for this flight to view local times or setup timezone preferences in your user account.

Time Position Orientation Groundspeed Altitude Reporting Facility
EDT Latitude Longitude Course Direction KTS MPH feet Rate Location/Type
Tue 04:22:49 AM 35.0000 -89.9667 165° South 176 203 2,000  Level KMEM
Tue 04:23:49 AM 34.9500 -89.9500 165° South 240 276 3,600 2,283 Climbing KMEM
Tue 04:24:42 AM 34.9500 -89.8667 90° East 302 348 6,300 2,973 Climbing KMEM
Tue 04:25:42 AM 34.9833 -89.7833 64° Northeast 300 345 9,200 2,331 Climbing KMEM
Tue 04:26:43 AM 35.0222 -89.6903 63° Northeast 326 375 11,000 1,488 Climbing Memphis Center
Tue 04:27:43 AM 35.0653 -89.5783 65° Northeast 334 384 12,200 1,650 Climbing Memphis Center
Tue 04:28:43 AM 35.1125 -89.4586 64° Northeast 372 428 14,300 2,000 Climbing Memphis Center
Tue 04:30:00 AM 35.1924 -89.2987 59° Northeast  Level FlightAware Approximate
Tue 04:30:43 AM 35.2106 -89.2108 59° Northeast 395 455 18,200  Level Memphis Center
Tue 04:31:43 AM 35.2700 -89.0856 60° Northeast 411 473 20,000 1,750 Climbing Memphis Center
Tue 04:32:43 AM 35.3333 -88.9622 58° Northeast 416 479 21,700 1,600 Climbing Memphis Center
Tue 04:33:43 AM 35.3922 -88.8442 59° Northeast 436 502 23,200 1,717 Climbing Memphis Center
Tue 04:39:04 AM 35.7730 -88.1010 59° Northeast 477 549 32,600 1,733 Climbing FlightAware ADS-B
Tue 04:39:50 AM 35.8290 -87.9930 57° Northeast 477 549 33,800 1,465 Climbing FlightAware ADS-B
Tue 04:40:30 AM 35.8750 -87.9000 59° Northeast 478 550 34,700 1,317 Climbing FlightAware ADS-B
Tue 04:41:12 AM 35.9240 -87.8000 59° Northeast 481 554 35,600 1,390 Climbing FlightAware ADS-B
Tue 04:41:52 AM 35.9710 -87.7090 57° Northeast 476 548 36,600 1,024 Climbing FlightAware ADS-B
Tue 04:42:34 AM 36.0190 -87.6120 59° Northeast 480 552 37,000 279 Climbing FlightAware ADS-B
Tue 04:43:18 AM 36.0710 -87.5080 58° Northeast 487 560 37,000  Level FlightAware ADS-B
Tue 04:43:58 AM 36.1180 -87.4130 58° Northeast 490 564 37,000  Level FlightAware ADS-B
Tue 04:44:40 AM 36.1700 -87.3130 57° Northeast 492 566 37,000  Level FlightAware ADS-B
Tue 04:45:24 AM 36.2290 -87.2100 55° Northeast 496 571 37,000  Level FlightAware ADS-B
Tue 04:46:04 AM 36.2830 -87.1200 53° Northeast 497 572 37,000  Level FlightAware ADS-B
Tue 04:46:48 AM 36.3420 -87.0190 54° Northeast 499 574 37,000  Level FlightAware ADS-B
Tue 04:47:28 AM 36.3990 -86.9250 53° Northeast 498 573 37,000  Level FlightAware ADS-B
Tue 04:48:14 AM 36.4610 -86.8220 53° Northeast 499 574 37,000  Level FlightAware ADS-B
Tue 04:48:55 AM 36.5170 -86.7270 54° Northeast 498 573 37,000  Level FlightAware ADS-B
Tue 04:49:36 AM 36.5730 -86.6300 54° Northeast 496 571 37,000  Level FlightAware ADS-B
Tue 04:50:16 AM 36.6250 -86.5420 54° Northeast 494 568 37,000  Level FlightAware ADS-B
Tue 04:50:58 AM 36.6840 -86.4440 53° Northeast 494 568 37,000  Level FlightAware ADS-B
Tue 04:51:44 AM 36.7460 -86.3360 54° Northeast 493 567 37,000  Level FlightAware ADS-B
Tue 04:52:17 AM 36.7850 -86.2700 54° Northeast 493 567 37,000  Level FlightAware ADS-B
Tue 04:53:07 AM 36.8570 -86.1440 54° Northeast 494 568 37,000  Level FlightAware ADS-B
Tue 04:53:38 AM 36.8984 -86.0727 54° Northeast 490 564 37,000  Level FlightAware ADS-B
Tue 04:54:09 AM 36.9392 -86.0018 54° Northeast 490 564 37,000  Level FlightAware ADS-B
Tue 04:54:39 AM 36.9792 -85.9330 54° Northeast 489 563 37,000  Level FlightAware ADS-B
Tue 04:55:13 AM 37.0232 -85.8572 54° Northeast 488 562 37,000  Level FlightAware ADS-B
Tue 04:55:44 AM 37.0642 -85.7860 54° Northeast 489 563 37,000  Level FlightAware ADS-B
Tue 04:56:15 AM 37.1047 -85.7147 55° Northeast 488 562 37,000  Level FlightAware ADS-B
Tue 04:56:45 AM 37.1442 -85.6458 54° Northeast 488 562 37,000  Level FlightAware ADS-B
Tue 04:57:16 AM 37.1849 -85.5742 54° Northeast 488 562 37,000  Level FlightAware ADS-B
Tue 04:57:46 AM 37.2250 -85.5030 55° Northeast 488 562 37,000  Level FlightAware ADS-B
Tue 04:58:17 AM 37.2653 -85.4318 55° Northeast 486 559 37,000  Level FlightAware ADS-B
Tue 04:58:47 AM 37.3046 -85.3629 54° Northeast 486 559 37,000  Level FlightAware ADS-B
Tue 04:59:18 AM 37.3439 -85.2939 54° Northeast 486 559 37,000  Level FlightAware ADS-B
Tue 04:59:49 AM 37.3845 -85.2221 55° Northeast 487 560 37,000  Level FlightAware ADS-B
Tue 05:00:20 AM 37.4250 -85.1504 55° Northeast 487 560 37,000  Level FlightAware ADS-B
Tue 05:00:50 AM 37.4647 -85.0788 55° Northeast 486 559 37,000  Level FlightAware ADS-B
Tue 05:01:21 AM 37.5039 -85.0096 54° Northeast 485 558 37,000  Level FlightAware ADS-B
Tue 05:01:51 AM 37.5426 -84.9403 55° Northeast 484 557 37,000  Level FlightAware ADS-B
Tue 05:02:22 AM 37.5824 -84.8690 55° Northeast 484 557 37,000  Level FlightAware ADS-B
Tue 05:02:52 AM 37.6212 -84.7974 56° Northeast 484 557 37,000  Level FlightAware ADS-B
Tue 05:03:22 AM 37.6598 -84.7282 55° Northeast 484 557 37,000  Level FlightAware ADS-B
Tue 05:03:52 AM 37.6989 -84.6587 55° Northeast 484 557 37,000  Level FlightAware ADS-B
Tue 05:04:24 AM 37.7399 -84.5844 55° Northeast 485 558 37,000  Level FlightAware ADS-B
Tue 05:04:55 AM 37.7794 -84.5123 55° Northeast 486 559 37,000  Level FlightAware ADS-B
Tue 05:05:27 AM 37.8200 -84.4399 55° Northeast 487 560 37,000  Level FlightAware ADS-B
Tue 05:05:59 AM 37.8611 -84.3651 55° Northeast 487 560 37,000  Level FlightAware ADS-B
Tue 05:07:02 AM 37.9360 -84.2290 55° Northeast 486 559 37,000  Level FlightAware ADS-B
Tue 05:07:41 AM 37.9780 -84.1510 56° Northeast 486 559 37,000  Level FlightAware ADS-B
Tue 05:08:27 AM 38.0290 -84.0600 55° Northeast 486 559 37,000  Level FlightAware ADS-B
Tue 05:09:03 AM 38.0680 -83.9880 55° Northeast 486 559 37,000  Level FlightAware ADS-B
Tue 05:09:51 AM 38.1210 -83.8930 55° Northeast 486 559 37,000  Level FlightAware ADS-B
Tue 05:10:27 AM 38.1600 -83.8210 55° Northeast 486 559 37,000  Level FlightAware ADS-B
Tue 05:11:25 AM 38.2240 -83.7060 55° Northeast 486 559 37,000  Level FlightAware ADS-B
Tue 05:12:01 AM 38.2630 -83.6340 55° Northeast 486 559 37,000  Level FlightAware ADS-B
Tue 05:12:49 AM 38.3760 -83.4110 57° Northeast 494 568 37,000  Level FlightAware ADS-B
Tue 05:13:33 AM 38.4400 -83.2880 56° Northeast 496 571 37,000  Level FlightAware ADS-B
Tue 05:14:14 AM 38.4950 -83.1830 56° Northeast 496 571 37,000  Level FlightAware ADS-B
Tue 05:14:54 AM 38.5460 -83.0880 56° Northeast 496 571 37,000  Level FlightAware ADS-B
Tue 05:16:20 AM 38.6540 -82.8810 56° Northeast 494 568 37,000  Level FlightAware ADS-B
Tue 05:17:03 AM 38.7090 -82.7740 57° Northeast 496 571 37,000  Level FlightAware ADS-B
Tue 05:17:45 AM 38.7610 -82.6760 56° Northeast 496 571 37,000  Level FlightAware ADS-B
Tue 05:18:20 AM 38.8060 -82.5880 57° Northeast 495 570 37,000  Level FlightAware ADS-B
Tue 05:19:06 AM 38.8640 -82.4760 56° Northeast 493 567 37,000  Level FlightAware ADS-B
Tue 05:19:49 AM 38.9190 -82.3680 57° Northeast 493 567 37,000  Level FlightAware ADS-B
Tue 05:20:30 AM 38.9700 -82.2680 57° Northeast 492 566 37,000  Level FlightAware ADS-B
Tue 05:21:16 AM 39.0280 -82.1580 56° Northeast 492 566 37,000  Level FlightAware ADS-B
Tue 05:21:56 AM 39.0780 -82.0580 57° Northeast 492 566 37,000  Level FlightAware ADS-B
Tue 05:22:35 AM 39.1270 -81.9620 57° Northeast 492 566 37,000  Level FlightAware ADS-B
Tue 05:23:17 AM 39.1770 -81.8620 57° Northeast 492 566 37,000  Level FlightAware ADS-B
Tue 05:24:03 AM 39.2360 -81.7460 57° Northeast 492 566 37,000  Level FlightAware ADS-B
Tue 05:24:44 AM 39.2870 -81.6450 57° Northeast 493 567 37,000  Level FlightAware ADS-B
Tue 05:25:24 AM 39.3370 -81.5470 57° Northeast 492 566 37,000  Level FlightAware ADS-B
Tue 05:26:09 AM 39.3920 -81.4360 57° Northeast 491 565 37,000  Level FlightAware ADS-B
Tue 05:26:52 AM 39.4450 -81.3290 57° Northeast 491 565 37,000  Level FlightAware ADS-B
Tue 05:27:32 AM 39.4940 -81.2310 57° Northeast 491 565 37,000  Level FlightAware ADS-B
Tue 05:28:10 AM 39.5410 -81.1360 57° Northeast 491 565 37,000  Level FlightAware ADS-B
Tue 05:28:39 AM 39.5740 -81.0670 58° Northeast 491 565 37,000  Level FlightAware ADS-B
Tue 05:29:23 AM 39.6300 -80.9550 57° Northeast 491 565 37,000  Level FlightAware ADS-B
Tue 05:30:07 AM 39.6830 -80.8490 57° Northeast 491 565 37,000  Level FlightAware ADS-B
Tue 05:30:47 AM 39.7330 -80.7440 58° Northeast 492 566 37,000  Level FlightAware ADS-B
Tue 05:31:29 AM 39.7830 -80.6420 57° Northeast 491 565 37,000  Level FlightAware ADS-B
Tue 05:32:13 AM 39.8360 -80.5340 57° Northeast 489 563 37,000  Level FlightAware ADS-B
Tue 05:32:49 AM 39.8790 -80.4420 59° Northeast 488 562 37,000  Level FlightAware ADS-B
Tue 05:33:35 AM 39.9350 -80.3280 57° Northeast 487 560 37,000  Level FlightAware ADS-B
Tue 05:34:17 AM 39.9860 -80.2210 58° Northeast 485 558 37,000  Level FlightAware ADS-B
Tue 05:35:00 AM 40.0350 -80.1200 58° Northeast 485 558 37,000  Level FlightAware ADS-B
Tue 05:35:40 AM 40.0830 -80.0180 58° Northeast 483 556 37,000  Level FlightAware ADS-B
Tue 05:36:24 AM 40.1340 -79.9110 58° Northeast 483 556 37,000  Level FlightAware ADS-B
Tue 05:37:06 AM 40.1860 -79.8050 57° Northeast 484 557 37,000  Level FlightAware ADS-B
Tue 05:37:44 AM 40.2300 -79.7100 59° Northeast 483 556 37,000  Level FlightAware ADS-B
Tue 05:38:22 AM 40.2750 -79.6130 59° Northeast 483 556 37,000  Level FlightAware ADS-B
Tue 05:39:04 AM 40.3230 -79.5110 58° Northeast 482 555 37,000  Level FlightAware ADS-B
Tue 05:39:44 AM 40.3710 -79.4120 58° Northeast 480 552 37,000  Level FlightAware ADS-B
Tue 05:40:28 AM 40.4220 -79.3030 58° Northeast 480 552 37,000  Level FlightAware ADS-B
Tue 05:41:12 AM 40.4720 -79.1930 59° Northeast 479 551 37,000  Level FlightAware ADS-B
Tue 05:41:54 AM 40.5200 -79.0890 59° Northeast 480 552 37,000  Level FlightAware ADS-B
Tue 05:42:34 AM 40.5660 -78.9890 59° Northeast 480 552 37,000  Level FlightAware ADS-B
Tue 05:43:42 AM 40.6450 -78.8170 59° Northeast 480 552 37,000  Level FlightAware ADS-B
Tue 05:44:26 AM 40.6940 -78.7140 58° Northeast 482 555 37,000  Level FlightAware ADS-B
Tue 05:45:01 AM 40.7310 -78.6310 60° Northeast 482 555 37,000  Level FlightAware ADS-B
Tue 05:46:01 AM 40.8000 -78.4800 59° Northeast 481 554 37,000  Level FlightAware ADS-B
Tue 05:46:56 AM 40.8630 -78.3410 59° Northeast 482 555 37,000  Level FlightAware ADS-B
Tue 05:47:36 AM 40.9070 -78.2420 60° Northeast 482 555 37,000  Level FlightAware ADS-B
Tue 05:48:16 AM 40.9540 -78.1390 59° Northeast 482 555 37,000  Level FlightAware ADS-B
Tue 05:49:01 AM 41.0040 -78.0270 59° Northeast 482 555 37,000  Level FlightAware ADS-B
Tue 05:49:41 AM 41.0500 -77.9230 60° Northeast 482 555 37,000  Level FlightAware ADS-B
Tue 05:50:34 AM 41.1157 -77.7754 59° Northeast 481 554 37,000 -141 Level FlightAware ADS-B
Tue 05:51:06 AM 41.1511 -77.6945 60° Northeast 477 549 36,800 -677 Descending FlightAware ADS-B
Tue 05:51:36 AM 41.1850 -77.6187 59° Northeast 477 549 36,300 -1,200 Descending FlightAware ADS-B
Tue 05:52:11 AM 41.2232 -77.5330 59° Northeast 475 547 35,500 -1,875 Descending FlightAware ADS-B
Tue 05:53:12 AM 41.2927 -77.3740 60° Northeast 477 549 33,300 -2,000 Descending FlightAware ADS-B
Tue 05:53:53 AM 41.3389 -77.2677 60° Northeast 487 560 32,100 -1,923 Descending FlightAware ADS-B
Tue 05:54:30 AM 41.3811 -77.1710 60° Northeast 497 572 30,800 -1,648 Descending FlightAware ADS-B
Tue 05:55:24 AM 41.4431 -77.0296 60° Northeast 499 574 29,600 -1,286 Descending FlightAware ADS-B
Tue 05:55:54 AM 41.4781 -76.9463 61° Northeast 499 574 29,000 -444 Descending FlightAware ADS-B
Tue 05:56:45 AM 41.5374 -76.8089 60° Northeast 504 580 29,000  Level FlightAware ADS-B
Tue 05:57:30 AM 41.5896 -76.6875 60° Northeast 504 580 29,000  Level FlightAware ADS-B
Tue 05:58:02 AM 41.6258 -76.6035 60° Northeast 505 581 29,000  Level FlightAware ADS-B
Tue 05:58:32 AM 41.6664 -76.5245 55° Northeast 503 579 29,000  Level FlightAware ADS-B
Tue 05:59:01 AM 41.7161 -76.4675 41° Northeast 498 573 29,000  Level FlightAware ADS-B
Tue 05:59:10 AM 41.7344 -76.4512 34° Northeast 497 572 29,000  Level FlightAware ADS-B
Tue 05:59:40 AM 41.7947 -76.4063 29° Northeast 497 572 29,000  Level FlightAware ADS-B
Tue 06:00:12 AM 41.8591 -76.3585 29° Northeast 496 571 29,000 -202 Level FlightAware ADS-B
Tue 06:01:09 AM 41.9732 -76.2741 29° Northeast 496 571 28,700 -1,200 Descending FlightAware ADS-B
Tue 06:01:52 AM 42.0460 -76.2210 28° Northeast 477 549 27,000 -2,810 Descending FlightAware ADS-B
Tue 06:02:28 AM 42.1160 -76.1670 30° Northeast 469 540 25,000 -3,000 Descending FlightAware ADS-B
Tue 06:02:48 AM 42.1550 -76.1220 41° Northeast 489 563 24,200 -968 Descending FlightAware ADS-B
Tue 06:03:30 AM 42.2030 -76.0080 60° Northeast 492 566 24,000 -143 Descending FlightAware ADS-B
Tue 06:04:12 AM 42.2430 -75.8910 65° Northeast 491 565 24,000  Level FlightAware ADS-B
Tue 06:04:56 AM 42.2860 -75.7660 65° Northeast 487 560 24,000  Level FlightAware ADS-B
Tue 06:05:36 AM 42.3130 -75.6540 72° East 484 557 24,000 -1,143 Level FlightAware ADS-B
Tue 06:06:20 AM 42.3450 -75.5220 72° East 492 566 22,400 -2,025 Descending FlightAware ADS-B
Tue 06:06:56 AM 42.3690 -75.4220 72° East 470 541 21,300 -1,786 Descending FlightAware ADS-B
Tue 06:07:44 AM 42.4000 -75.2930 72° East 460 529 19,900 -1,705 Descending FlightAware ADS-B
Tue 06:08:24 AM 42.4260 -75.1880 71° East 454 522 18,800 -1,120 Descending FlightAware ADS-B
Tue 06:08:59 AM 42.4470 -75.0990 72° East 450 518 18,500 -214 Descending FlightAware ADS-B
Tue 06:09:48 AM 42.4740 -74.9870 72° East 450 518 18,500  Level FlightAware ADS-B
Tue 06:10:24 AM 42.4930 -74.9050 73° East 450 518 18,500  Level FlightAware ADS-B
Tue 06:11:43 AM 42.5370 -74.7250 72° East 450 518 18,500  Level FlightAware ADS-B
Tue 06:12:21 AM 42.5570 -74.6380 73° East 450 518 18,500 -5,447 Level FlightAware ADS-B
Tue 06:12:59 AM 42.5858 -74.5156 73° East 354 407 11,600 -5,415 Descending Boston Center
Tue 06:13:43 AM 42.5994 -74.4428 76° East 345 397 11,100 -1,327 Descending Boston Center
Tue 06:14:43 AM 42.6164 -74.3106 80° East 322 371 9,300 -1,850 Descending Boston Center
Tue 06:15:43 AM 42.6242 -74.2064 84° East 307 353 7,400 -2,000 Descending Boston Center
Tue 06:16:43 AM 42.6344 -74.0825 84° East 307 353 5,300 -1,450 Descending Boston Center
Tue 06:17:43 AM 42.6422 -73.9811 84° East 291 335 4,500 -851 Descending Boston Center
Tue 06:18:57 AM 42.6436 -73.8711 89° East 219 252 3,400 -1,045 Descending Boston Center
Tue 06:19:55 AM 42.6525 -73.8206 77° East 232 267 2,200 -1,140 Descending Boston Center
Tue 06:20:58 AM 42.6986 -73.8044 14° North 125 144 1,100 -1,048 Descending Boston Center
Tue 06:25:00 AM 42.7333 -73.8000 75° East  Level FlightAware Approximate

Login

Don't have an account? Register now (free) for customized features, flight alerts, and more!